sensor_id;sensor_type;location;lat;lon;timestamp;P1;durP1;ratioP1;P2;durP2;ratioP2
53299;SDS011;39187;48.476;8.310;2023-08-24T00:01:17;5.83;;;4.87;;
53299;SDS011;39187;48.476;8.310;2023-08-24T00:03:46;10.93;;;4.97;;
53299;SDS011;39187;48.476;8.310;2023-08-24T00:06:12;7.30;;;5.83;;
53299;SDS011;39187;48.476;8.310;2023-08-24T00:08:38;6.13;;;5.50;;
53299;SDS011;39187;48.476;8.310;2023-08-24T00:11:04;7.37;;;5.23;;
53299;SDS011;39187;48.476;8.310;2023-08-24T00:13:30;4.80;;;4.60;;
53299;SDS011;39187;48.476;8.310;2023-08-24T00:15:56;5.77;;;5.20;;
53299;SDS011;39187;48.476;8.310;2023-08-24T00:18:21;6.23;;;5.57;;
53299;SDS011;39187;48.476;8.310;2023-08-24T00:20:48;6.10;;;5.20;;
53299;SDS011;39187;48.476;8.310;2023-08-24T00:23:14;6.43;;;5.83;;
53299;SDS011;39187;48.476;8.310;2023-08-24T00:25:40;5.60;;;5.30;;
53299;SDS011;39187;48.476;8.310;2023-08-24T00:28:08;6.40;;;5.43;;
53299;SDS011;39187;48.476;8.310;2023-08-24T00:30:34;9.50;;;5.80;;
53299;SDS011;39187;48.476;8.310;2023-08-24T00:32:59;5.93;;;5.47;;
53299;SDS011;39187;48.476;8.310;2023-08-24T00:35:25;6.00;;;5.47;;
53299;SDS011;39187;48.476;8.310;2023-08-24T00:37:51;6.23;;;5.33;;
53299;SDS011;39187;48.476;8.310;2023-08-24T00:40:16;13.13;;;5.50;;
53299;SDS011;39187;48.476;8.310;2023-08-24T00:42:43;7.17;;;5.77;;
53299;SDS011;39187;48.476;8.310;2023-08-24T00:45:11;6.20;;;5.87;;
53299;SDS011;39187;48.476;8.310;2023-08-24T00:47:37;6.00;;;5.47;;
53299;SDS011;39187;48.476;8.310;2023-08-24T00:50:05;6.57;;;5.90;;
53299;SDS011;39187;48.476;8.310;2023-08-24T00:52:32;10.20;;;6.20;;
53299;SDS011;39187;48.476;8.310;2023-08-24T00:54:58;5.97;;;5.40;;
53299;SDS011;39187;48.476;8.310;2023-08-24T00:57:25;5.97;;;5.57;;
53299;SDS011;39187;48.476;8.310;2023-08-24T00:59:52;11.03;;;6.00;;
53299;SDS011;39187;48.476;8.310;2023-08-24T01:02:17;6.40;;;5.70;;
53299;SDS011;39187;48.476;8.310;2023-08-24T01:04:43;7.10;;;6.50;;
53299;SDS011;39187;48.476;8.310;2023-08-24T01:07:12;5.67;;;5.30;;
53299;SDS011;39187;48.476;8.310;2023-08-24T01:09:38;5.70;;;5.30;;
53299;SDS011;39187;48.476;8.310;2023-08-24T01:15:13;6.07;;;5.50;;
53299;SDS011;39187;48.476;8.310;2023-08-24T01:17:43;8.83;;;6.63;;
53299;SDS011;39187;48.476;8.310;2023-08-24T01:20:10;6.83;;;6.30;;
53299;SDS011;39187;48.476;8.310;2023-08-24T01:25:46;6.77;;;6.37;;
53299;SDS011;39187;48.476;8.310;2023-08-24T01:28:16;6.40;;;6.10;;
53299;SDS011;39187;48.476;8.310;2023-08-24T01:30:44;7.70;;;6.10;;
53299;SDS011;39187;48.476;8.310;2023-08-24T01:33:09;7.93;;;5.33;;
53299;SDS011;39187;48.476;8.310;2023-08-24T01:35:38;7.63;;;6.60;;
53299;SDS011;39187;48.476;8.310;2023-08-24T01:38:05;7.07;;;5.90;;
53299;SDS011;39187;48.476;8.310;2023-08-24T01:43:42;5.73;;;5.43;;
53299;SDS011;39187;48.476;8.310;2023-08-24T01:46:11;10.07;;;7.27;;
53299;SDS011;39187;48.476;8.310;2023-08-24T01:48:40;6.00;;;5.50;;
53299;SDS011;39187;48.476;8.310;2023-08-24T01:51:07;6.37;;;6.07;;
53299;SDS011;39187;48.476;8.310;2023-08-24T01:53:35;6.17;;;5.60;;
53299;SDS011;39187;48.476;8.310;2023-08-24T01:56:07;6.30;;;5.37;;
53299;SDS011;39187;48.476;8.310;2023-08-24T01:58:36;5.27;;;4.97;;
53299;SDS011;39187;48.476;8.310;2023-08-24T02:01:02;5.93;;;5.37;;
53299;SDS011;39187;48.476;8.310;2023-08-24T02:03:29;6.03;;;5.67;;
53299;SDS011;39187;48.476;8.310;2023-08-24T02:05:55;10.13;;;5.50;;
53299;SDS011;39187;48.476;8.310;2023-08-24T02:08:21;6.83;;;6.33;;
53299;SDS011;39187;48.476;8.310;2023-08-24T02:10:47;5.70;;;5.40;;
53299;SDS011;39187;48.476;8.310;2023-08-24T02:13:12;6.13;;;5.60;;
53299;SDS011;39187;48.476;8.310;2023-08-24T02:15:38;8.23;;;5.37;;
53299;SDS011;39187;48.476;8.310;2023-08-24T02:18:06;5.50;;;5.10;;
53299;SDS011;39187;48.476;8.310;2023-08-24T02:20:36;5.77;;;5.27;;
53299;SDS011;39187;48.476;8.310;2023-08-24T02:23:02;6.33;;;5.80;;
53299;SDS011;39187;48.476;8.310;2023-08-24T02:25:28;5.87;;;5.37;;
53299;SDS011;39187;48.476;8.310;2023-08-24T02:27:54;5.47;;;5.00;;
53299;SDS011;39187;48.476;8.310;2023-08-24T02:30:19;7.77;;;5.77;;
53299;SDS011;39187;48.476;8.310;2023-08-24T02:32:45;4.97;;;4.50;;
53299;SDS011;39187;48.476;8.310;2023-08-24T02:35:10;5.93;;;5.33;;
53299;SDS011;39187;48.476;8.310;2023-08-24T02:37:36;8.33;;;4.90;;
53299;SDS011;39187;48.476;8.310;2023-08-24T02:40:02;7.33;;;4.67;;
53299;SDS011;39187;48.476;8.310;2023-08-24T02:42:30;5.90;;;4.53;;
53299;SDS011;39187;48.476;8.310;2023-08-24T02:44:56;13.63;;;4.77;;
53299;SDS011;39187;48.476;8.310;2023-08-24T02:47:22;7.10;;;6.40;;
53299;SDS011;39187;48.476;8.310;2023-08-24T02:49:47;5.30;;;4.83;;
53299;SDS011;39187;48.476;8.310;2023-08-24T02:52:13;5.43;;;4.47;;
53299;SDS011;39187;48.476;8.310;2023-08-24T02:54:38;5.03;;;4.70;;
53299;SDS011;39187;48.476;8.310;2023-08-24T02:57:04;4.90;;;4.63;;
53299;SDS011;39187;48.476;8.310;2023-08-24T02:59:30;8.00;;;5.93;;
53299;SDS011;39187;48.476;8.310;2023-08-24T03:01:55;13.33;;;5.30;;
53299;SDS011;39187;48.476;8.310;2023-08-24T03:04:21;5.73;;;4.83;;
53299;SDS011;39187;48.476;8.310;2023-08-24T03:06:47;5.10;;;4.70;;
53299;SDS011;39187;48.476;8.310;2023-08-24T03:09:12;9.20;;;5.27;;
53299;SDS011;39187;48.476;8.310;2023-08-24T03:11:38;5.13;;;4.93;;
53299;SDS011;39187;48.476;8.310;2023-08-24T03:14:03;5.13;;;4.83;;
53299;SDS011;39187;48.476;8.310;2023-08-24T03:16:29;6.17;;;5.67;;
53299;SDS011;39187;48.476;8.310;2023-08-24T03:18:54;5.33;;;5.07;;
53299;SDS011;39187;48.476;8.310;2023-08-24T03:21:20;7.83;;;5.70;;
53299;SDS011;39187;48.476;8.310;2023-08-24T03:23:46;5.73;;;5.10;;
53299;SDS011;39187;48.476;8.310;2023-08-24T03:26:11;5.40;;;5.20;;
53299;SDS011;39187;48.476;8.310;2023-08-24T03:28:37;10.20;;;6.53;;
53299;SDS011;39187;48.476;8.310;2023-08-24T03:31:02;6.37;;;5.77;;
53299;SDS011;39187;48.476;8.310;2023-08-24T03:33:28;5.90;;;5.40;;
53299;SDS011;39187;48.476;8.310;2023-08-24T03:35:54;7.10;;;6.70;;
53299;SDS011;39187;48.476;8.310;2023-08-24T03:38:19;7.37;;;5.97;;
53299;SDS011;39187;48.476;8.310;2023-08-24T03:40:45;6.33;;;6.03;;
53299;SDS011;39187;48.476;8.310;2023-08-24T03:43:10;7.07;;;6.60;;
53299;SDS011;39187;48.476;8.310;2023-08-24T03:45:36;6.23;;;5.87;;
53299;SDS011;39187;48.476;8.310;2023-08-24T03:48:01;6.17;;;5.70;;
53299;SDS011;39187;48.476;8.310;2023-08-24T03:50:27;6.03;;;5.60;;
53299;SDS011;39187;48.476;8.310;2023-08-24T03:52:53;6.60;;;6.30;;
53299;SDS011;39187;48.476;8.310;2023-08-24T03:55:19;7.73;;;5.90;;
53299;SDS011;39187;48.476;8.310;2023-08-24T03:57:46;7.23;;;6.63;;
53299;SDS011;39187;48.476;8.310;2023-08-24T04:00:11;6.60;;;6.13;;
53299;SDS011;39187;48.476;8.310;2023-08-24T04:02:38;6.87;;;6.20;;
53299;SDS011;39187;48.476;8.310;2023-08-24T04:05:03;11.33;;;7.27;;
53299;SDS011;39187;48.476;8.310;2023-08-24T04:07:29;6.47;;;6.13;;
53299;SDS011;39187;48.476;8.310;2023-08-24T04:09:55;6.47;;;5.90;;
53299;SDS011;39187;48.476;8.310;2023-08-24T04:12:20;7.53;;;6.27;;
53299;SDS011;39187;48.476;8.310;2023-08-24T04:14:45;7.63;;;7.00;;
53299;SDS011;39187;48.476;8.310;2023-08-24T04:17:11;9.30;;;6.67;;
53299;SDS011;39187;48.476;8.310;2023-08-24T04:19:39;6.90;;;6.33;;
53299;SDS011;39187;48.476;8.310;2023-08-24T04:22:05;8.43;;;7.03;;
53299;SDS011;39187;48.476;8.310;2023-08-24T04:24:30;8.77;;;8.10;;
53299;SDS011;39187;48.476;8.310;2023-08-24T04:26:56;7.30;;;6.80;;
53299;SDS011;39187;48.476;8.310;2023-08-24T04:29:21;7.53;;;7.03;;
53299;SDS011;39187;48.476;8.310;2023-08-24T04:31:47;7.63;;;7.00;;
53299;SDS011;39187;48.476;8.310;2023-08-24T04:34:12;6.93;;;6.53;;
53299;SDS011;39187;48.476;8.310;2023-08-24T04:36:38;7.00;;;6.43;;
53299;SDS011;39187;48.476;8.310;2023-08-24T04:39:03;13.03;;;7.87;;
53299;SDS011;39187;48.476;8.310;2023-08-24T04:41:29;8.17;;;7.43;;
53299;SDS011;39187;48.476;8.310;2023-08-24T04:43:54;6.77;;;6.30;;
53299;SDS011;39187;48.476;8.310;2023-08-24T04:46:20;7.20;;;6.80;;
53299;SDS011;39187;48.476;8.310;2023-08-24T04:48:45;7.03;;;6.53;;
53299;SDS011;39187;48.476;8.310;2023-08-24T04:51:11;8.70;;;7.10;;
53299;SDS011;39187;48.476;8.310;2023-08-24T04:53:36;7.20;;;6.57;;
53299;SDS011;39187;48.476;8.310;2023-08-24T04:56:02;6.23;;;5.77;;
53299;SDS011;39187;48.476;8.310;2023-08-24T04:58:27;6.60;;;6.10;;
53299;SDS011;39187;48.476;8.310;2023-08-24T05:00:53;9.33;;;6.07;;
53299;SDS011;39187;48.476;8.310;2023-08-24T05:03:20;6.43;;;5.87;;
53299;SDS011;39187;48.476;8.310;2023-08-24T05:05:46;7.40;;;6.30;;
53299;SDS011;39187;48.476;8.310;2023-08-24T05:08:12;8.13;;;6.33;;
53299;SDS011;39187;48.476;8.310;2023-08-24T05:10:38;7.97;;;6.13;;
53299;SDS011;39187;48.476;8.310;2023-08-24T05:13:03;7.43;;;6.67;;
53299;SDS011;39187;48.476;8.310;2023-08-24T05:15:29;8.63;;;6.40;;
53299;SDS011;39187;48.476;8.310;2023-08-24T05:17:55;6.80;;;6.37;;
53299;SDS011;39187;48.476;8.310;2023-08-24T05:20:27;6.10;;;5.80;;
53299;SDS011;39187;48.476;8.310;2023-08-24T05:22:53;7.30;;;5.73;;
53299;SDS011;39187;48.476;8.310;2023-08-24T05:25:20;6.63;;;5.60;;
53299;SDS011;39187;48.476;8.310;2023-08-24T05:27:46;5.97;;;5.57;;
53299;SDS011;39187;48.476;8.310;2023-08-24T05:30:12;6.83;;;6.33;;
53299;SDS011;39187;48.476;8.310;2023-08-24T05:32:37;6.97;;;6.57;;
53299;SDS011;39187;48.476;8.310;2023-08-24T05:35:04;6.60;;;6.20;;
53299;SDS011;39187;48.476;8.310;2023-08-24T05:37:30;6.77;;;6.27;;
53299;SDS011;39187;48.476;8.310;2023-08-24T05:39:56;6.83;;;6.40;;
53299;SDS011;39187;48.476;8.310;2023-08-24T05:42:21;7.07;;;6.57;;
53299;SDS011;39187;48.476;8.310;2023-08-24T05:44:47;6.27;;;5.77;;
53299;SDS011;39187;48.476;8.310;2023-08-24T05:47:12;6.20;;;5.70;;
53299;SDS011;39187;48.476;8.310;2023-08-24T05:49:38;6.97;;;6.37;;
53299;SDS011;39187;48.476;8.310;2023-08-24T05:52:03;6.90;;;6.60;;
53299;SDS011;39187;48.476;8.310;2023-08-24T05:54:29;7.70;;;6.57;;
53299;SDS011;39187;48.476;8.310;2023-08-24T05:56:54;5.63;;;5.43;;
53299;SDS011;39187;48.476;8.310;2023-08-24T05:59:20;7.10;;;6.10;;
53299;SDS011;39187;48.476;8.310;2023-08-24T06:01:46;6.40;;;5.80;;
53299;SDS011;39187;48.476;8.310;2023-08-24T06:04:11;7.27;;;6.87;;
53299;SDS011;39187;48.476;8.310;2023-08-24T06:06:37;6.50;;;5.83;;
53299;SDS011;39187;48.476;8.310;2023-08-24T06:09:03;6.10;;;5.70;;
53299;SDS011;39187;48.476;8.310;2023-08-24T06:11:32;6.20;;;5.90;;
53299;SDS011;39187;48.476;8.310;2023-08-24T06:13:58;8.23;;;6.43;;
53299;SDS011;39187;48.476;8.310;2023-08-24T06:16:24;6.97;;;6.57;;
53299;SDS011;39187;48.476;8.310;2023-08-24T06:18:49;6.97;;;6.47;;
53299;SDS011;39187;48.476;8.310;2023-08-24T06:21:15;6.80;;;6.50;;
53299;SDS011;39187;48.476;8.310;2023-08-24T06:23:41;6.27;;;5.83;;
53299;SDS011;39187;48.476;8.310;2023-08-24T06:26:07;8.80;;;5.73;;
53299;SDS011;39187;48.476;8.310;2023-08-24T06:28:32;6.40;;;6.03;;
53299;SDS011;39187;48.476;8.310;2023-08-24T06:30:59;5.47;;;5.27;;
53299;SDS011;39187;48.476;8.310;2023-08-24T06:33:28;6.17;;;5.97;;
53299;SDS011;39187;48.476;8.310;2023-08-24T06:35:58;6.40;;;6.20;;
53299;SDS011;39187;48.476;8.310;2023-08-24T06:38:25;6.47;;;5.90;;
53299;SDS011;39187;48.476;8.310;2023-08-24T06:40:50;6.67;;;6.00;;
53299;SDS011;39187;48.476;8.310;2023-08-24T06:43:16;8.70;;;6.37;;
53299;SDS011;39187;48.476;8.310;2023-08-24T06:45:43;6.17;;;5.77;;
53299;SDS011;39187;48.476;8.310;2023-08-24T06:48:09;5.70;;;5.37;;
53299;SDS011;39187;48.476;8.310;2023-08-24T06:50:36;6.20;;;5.80;;
53299;SDS011;39187;48.476;8.310;2023-08-24T06:53:02;6.70;;;6.20;;
53299;SDS011;39187;48.476;8.310;2023-08-24T06:55:30;10.07;;;9.17;;
53299;SDS011;39187;48.476;8.310;2023-08-24T06:57:56;10.57;;;9.10;;
53299;SDS011;39187;48.476;8.310;2023-08-24T07:00:21;6.50;;;5.67;;
53299;SDS011;39187;48.476;8.310;2023-08-24T07:02:48;6.37;;;5.73;;
53299;SDS011;39187;48.476;8.310;2023-08-24T07:05:15;5.37;;;5.00;;
53299;SDS011;39187;48.476;8.310;2023-08-24T07:07:44;5.53;;;5.23;;
53299;SDS011;39187;48.476;8.310;2023-08-24T07:10:11;6.30;;;5.67;;
53299;SDS011;39187;48.476;8.310;2023-08-24T07:12:37;8.07;;;6.30;;
53299;SDS011;39187;48.476;8.310;2023-08-24T07:15:06;5.57;;;5.00;;
53299;SDS011;39187;48.476;8.310;2023-08-24T07:17:32;5.70;;;5.40;;
53299;SDS011;39187;48.476;8.310;2023-08-24T07:19:57;5.70;;;5.27;;
53299;SDS011;39187;48.476;8.310;2023-08-24T07:22:23;5.00;;;4.70;;
53299;SDS011;39187;48.476;8.310;2023-08-24T07:24:51;5.63;;;5.03;;
53299;SDS011;39187;48.476;8.310;2023-08-24T07:27:17;6.27;;;5.80;;
53299;SDS011;39187;48.476;8.310;2023-08-24T07:29:43;8.00;;;5.60;;
53299;SDS011;39187;48.476;8.310;2023-08-24T07:32:08;5.53;;;4.83;;
53299;SDS011;39187;48.476;8.310;2023-08-24T07:34:34;6.33;;;4.70;;
53299;SDS011;39187;48.476;8.310;2023-08-24T07:36:59;5.33;;;5.03;;
53299;SDS011;39187;48.476;8.310;2023-08-24T07:39:25;5.40;;;5.00;;
53299;SDS011;39187;48.476;8.310;2023-08-24T07:41:51;6.83;;;4.97;;
53299;SDS011;39187;48.476;8.310;2023-08-24T07:44:16;5.40;;;5.07;;
53299;SDS011;39187;48.476;8.310;2023-08-24T07:46:42;5.97;;;5.43;;
53299;SDS011;39187;48.476;8.310;2023-08-24T07:49:07;10.30;;;6.03;;
53299;SDS011;39187;48.476;8.310;2023-08-24T07:51:33;5.37;;;4.90;;
53299;SDS011;39187;48.476;8.310;2023-08-24T07:53:59;7.37;;;5.53;;
53299;SDS011;39187;48.476;8.310;2023-08-24T07:56:25;5.63;;;4.93;;
53299;SDS011;39187;48.476;8.310;2023-08-24T07:58:51;4.70;;;4.40;;
53299;SDS011;39187;48.476;8.310;2023-08-24T08:01:16;6.07;;;5.47;;
53299;SDS011;39187;48.476;8.310;2023-08-24T08:03:41;5.10;;;4.70;;
53299;SDS011;39187;48.476;8.310;2023-08-24T08:06:07;10.43;;;4.70;;
53299;SDS011;39187;48.476;8.310;2023-08-24T08:08:32;5.30;;;5.00;;
53299;SDS011;39187;48.476;8.310;2023-08-24T08:10:59;5.43;;;5.00;;
53299;SDS011;39187;48.476;8.310;2023-08-24T08:13:25;5.90;;;5.50;;
53299;SDS011;39187;48.476;8.310;2023-08-24T08:15:51;5.23;;;4.93;;
53299;SDS011;39187;48.476;8.310;2023-08-24T08:18:17;5.33;;;4.87;;
53299;SDS011;39187;48.476;8.310;2023-08-24T08:20:42;5.70;;;5.40;;
53299;SDS011;39187;48.476;8.310;2023-08-24T08:23:08;5.43;;;4.93;;
53299;SDS011;39187;48.476;8.310;2023-08-24T08:25:34;5.00;;;4.70;;
53299;SDS011;39187;48.476;8.310;2023-08-24T08:27:59;6.60;;;4.77;;
53299;SDS011;39187;48.476;8.310;2023-08-24T08:30:25;4.63;;;4.23;;
53299;SDS011;39187;48.476;8.310;2023-08-24T08:32:50;6.10;;;5.50;;
53299;SDS011;39187;48.476;8.310;2023-08-24T08:35:17;6.03;;;5.30;;
53299;SDS011;39187;48.476;8.310;2023-08-24T08:37:43;6.30;;;4.77;;
53299;SDS011;39187;48.476;8.310;2023-08-24T08:40:10;5.30;;;4.90;;
53299;SDS011;39187;48.476;8.310;2023-08-24T08:42:36;7.13;;;5.23;;
53299;SDS011;39187;48.476;8.310;2023-08-24T08:45:02;5.50;;;5.00;;
53299;SDS011;39187;48.476;8.310;2023-08-24T08:47:33;11.63;;;5.53;;
53299;SDS011;39187;48.476;8.310;2023-08-24T08:49:59;5.23;;;5.03;;
53299;SDS011;39187;48.476;8.310;2023-08-24T08:52:27;5.80;;;4.67;;
53299;SDS011;39187;48.476;8.310;2023-08-24T08:54:53;4.47;;;4.23;;
53299;SDS011;39187;48.476;8.310;2023-08-24T08:57:19;6.50;;;5.93;;
53299;SDS011;39187;48.476;8.310;2023-08-24T08:59:48;5.60;;;4.40;;
53299;SDS011;39187;48.476;8.310;2023-08-24T09:02:16;5.10;;;4.70;;
53299;SDS011;39187;48.476;8.310;2023-08-24T09:04:44;5.53;;;5.10;;
53299;SDS011;39187;48.476;8.310;2023-08-24T09:07:11;5.10;;;4.70;;
53299;SDS011;39187;48.476;8.310;2023-08-24T09:09:41;4.83;;;4.50;;
53299;SDS011;39187;48.476;8.310;2023-08-24T09:12:07;5.90;;;5.60;;
53299;SDS011;39187;48.476;8.310;2023-08-24T09:14:32;4.87;;;4.57;;
53299;SDS011;39187;48.476;8.310;2023-08-24T09:16:58;6.27;;;5.60;;
53299;SDS011;39187;48.476;8.310;2023-08-24T09:19:27;5.70;;;5.27;;
53299;SDS011;39187;48.476;8.310;2023-08-24T09:22:01;5.50;;;5.10;;
53299;SDS011;39187;48.476;8.310;2023-08-24T09:24:31;6.30;;;5.90;;
53299;SDS011;39187;48.476;8.310;2023-08-24T09:26:57;6.83;;;5.53;;
53299;SDS011;39187;48.476;8.310;2023-08-24T09:29:23;5.90;;;5.40;;
53299;SDS011;39187;48.476;8.310;2023-08-24T09:31:50;6.37;;;6.07;;
53299;SDS011;39187;48.476;8.310;2023-08-24T09:34:18;5.73;;;5.27;;
53299;SDS011;39187;48.476;8.310;2023-08-24T09:36:45;6.13;;;5.60;;
53299;SDS011;39187;48.476;8.310;2023-08-24T09:39:11;5.97;;;5.50;;
53299;SDS011;39187;48.476;8.310;2023-08-24T09:41:44;5.80;;;5.50;;
53299;SDS011;39187;48.476;8.310;2023-08-24T09:44:12;10.23;;;5.50;;
53299;SDS011;39187;48.476;8.310;2023-08-24T09:46:38;6.30;;;5.80;;
53299;SDS011;39187;48.476;8.310;2023-08-24T09:49:05;5.90;;;5.30;;
53299;SDS011;39187;48.476;8.310;2023-08-24T09:51:31;8.57;;;6.20;;
53299;SDS011;39187;48.476;8.310;2023-08-24T09:53:58;6.50;;;6.10;;
53299;SDS011;39187;48.476;8.310;2023-08-24T09:56:27;6.03;;;5.63;;
53299;SDS011;39187;48.476;8.310;2023-08-24T09:58:54;6.20;;;5.60;;
53299;SDS011;39187;48.476;8.310;2023-08-24T10:01:21;9.77;;;5.73;;
53299;SDS011;39187;48.476;8.310;2023-08-24T10:03:50;12.53;;;6.53;;
53299;SDS011;39187;48.476;8.310;2023-08-24T10:06:21;7.17;;;6.40;;
53299;SDS011;39187;48.476;8.310;2023-08-24T10:08:51;6.27;;;5.63;;
53299;SDS011;39187;48.476;8.310;2023-08-24T10:11:21;5.80;;;5.40;;
53299;SDS011;39187;48.476;8.310;2023-08-24T10:14:07;10.03;;;8.00;;
53299;SDS011;39187;48.476;8.310;2023-08-24T10:16:35;7.53;;;5.67;;
53299;SDS011;39187;48.476;8.310;2023-08-24T10:19:02;6.67;;;5.50;;
53299;SDS011;39187;48.476;8.310;2023-08-24T10:21:28;6.97;;;6.30;;
53299;SDS011;39187;48.476;8.310;2023-08-24T10:23:55;10.10;;;5.57;;
53299;SDS011;39187;48.476;8.310;2023-08-24T10:26:25;7.80;;;7.10;;
53299;SDS011;39187;48.476;8.310;2023-08-24T10:28:51;14.13;;;6.80;;
53299;SDS011;39187;48.476;8.310;2023-08-24T10:31:18;8.93;;;6.37;;
53299;SDS011;39187;48.476;8.310;2023-08-24T10:33:45;6.63;;;6.17;;
53299;SDS011;39187;48.476;8.310;2023-08-24T10:36:12;6.93;;;6.20;;
53299;SDS011;39187;48.476;8.310;2023-08-24T10:38:40;14.93;;;6.70;;
53299;SDS011;39187;48.476;8.310;2023-08-24T10:41:09;6.70;;;6.20;;
53299;SDS011;39187;48.476;8.310;2023-08-24T10:43:39;7.37;;;6.63;;
53299;SDS011;39187;48.476;8.310;2023-08-24T10:46:12;7.33;;;6.87;;
53299;SDS011;39187;48.476;8.310;2023-08-24T10:53:53;8.63;;;6.30;;
53299;SDS011;39187;48.476;8.310;2023-08-24T10:56:21;9.73;;;6.33;;
53299;SDS011;39187;48.476;8.310;2023-08-24T11:01:38;7.53;;;6.93;;
53299;SDS011;39187;48.476;8.310;2023-08-24T11:04:05;7.13;;;5.57;;
53299;SDS011;39187;48.476;8.310;2023-08-24T11:06:33;6.33;;;5.77;;
53299;SDS011;39187;48.476;8.310;2023-08-24T11:09:05;6.67;;;6.17;;
53299;SDS011;39187;48.476;8.310;2023-08-24T11:11:39;7.30;;;5.93;;
53299;SDS011;39187;48.476;8.310;2023-08-24T11:14:16;6.93;;;6.37;;
53299;SDS011;39187;48.476;8.310;2023-08-24T11:16:45;8.23;;;5.70;;
53299;SDS011;39187;48.476;8.310;2023-08-24T11:19:11;6.13;;;5.70;;
53299;SDS011;39187;48.476;8.310;2023-08-24T11:21:38;8.87;;;6.00;;
53299;SDS011;39187;48.476;8.310;2023-08-24T11:24:04;6.70;;;6.10;;
53299;SDS011;39187;48.476;8.310;2023-08-24T11:26:31;7.33;;;6.60;;
53299;SDS011;39187;48.476;8.310;2023-08-24T11:28:57;6.67;;;6.10;;
53299;SDS011;39187;48.476;8.310;2023-08-24T11:31:23;10.40;;;6.60;;
53299;SDS011;39187;48.476;8.310;2023-08-24T11:33:53;9.73;;;6.77;;
53299;SDS011;39187;48.476;8.310;2023-08-24T11:36:22;6.33;;;5.80;;
53299;SDS011;39187;48.476;8.310;2023-08-24T11:38:49;8.70;;;6.40;;
53299;SDS011;39187;48.476;8.310;2023-08-24T11:41:17;7.73;;;7.13;;
53299;SDS011;39187;48.476;8.310;2023-08-24T11:43:44;6.20;;;5.93;;
53299;SDS011;39187;48.476;8.310;2023-08-24T11:46:11;8.77;;;7.33;;
53299;SDS011;39187;48.476;8.310;2023-08-24T11:48:37;7.53;;;6.90;;
53299;SDS011;39187;48.476;8.310;2023-08-24T11:51:07;6.90;;;6.07;;
53299;SDS011;39187;48.476;8.310;2023-08-24T11:53:37;7.37;;;5.87;;
53299;SDS011;39187;48.476;8.310;2023-08-24T11:56:10;11.17;;;6.70;;
53299;SDS011;39187;48.476;8.310;2023-08-24T11:58:42;7.97;;;6.10;;
53299;SDS011;39187;48.476;8.310;2023-08-24T12:01:12;18.23;;;7.43;;
53299;SDS011;39187;48.476;8.310;2023-08-24T12:03:38;8.13;;;6.87;;
53299;SDS011;39187;48.476;8.310;2023-08-24T12:06:11;8.60;;;6.70;;
53299;SDS011;39187;48.476;8.310;2023-08-24T12:08:38;7.13;;;6.50;;
53299;SDS011;39187;48.476;8.310;2023-08-24T12:11:15;6.93;;;6.33;;
53299;SDS011;39187;48.476;8.310;2023-08-24T12:13:49;7.10;;;6.47;;
53299;SDS011;39187;48.476;8.310;2023-08-24T12:16:16;7.00;;;6.30;;
53299;SDS011;39187;48.476;8.310;2023-08-24T12:18:55;7.20;;;6.70;;
53299;SDS011;39187;48.476;8.310;2023-08-24T12:21:22;8.00;;;7.53;;
53299;SDS011;39187;48.476;8.310;2023-08-24T12:23:55;8.17;;;7.47;;
53299;SDS011;39187;48.476;8.310;2023-08-24T12:26:30;7.30;;;6.43;;
53299;SDS011;39187;48.476;8.310;2023-08-24T12:29:00;12.93;;;7.43;;
53299;SDS011;39187;48.476;8.310;2023-08-24T12:31:30;7.43;;;6.90;;
53299;SDS011;39187;48.476;8.310;2023-08-24T12:36:31;20.13;;;8.10;;
53299;SDS011;39187;48.476;8.310;2023-08-24T12:38:58;10.33;;;7.77;;
53299;SDS011;39187;48.476;8.310;2023-08-24T12:41:24;12.37;;;7.73;;
53299;SDS011;39187;48.476;8.310;2023-08-24T12:43:50;13.23;;;11.57;;
53299;SDS011;39187;48.476;8.310;2023-08-24T12:46:16;8.00;;;7.30;;
53299;SDS011;39187;48.476;8.310;2023-08-24T12:48:42;8.87;;;8.17;;
53299;SDS011;39187;48.476;8.310;2023-08-24T12:51:07;8.10;;;7.60;;
53299;SDS011;39187;48.476;8.310;2023-08-24T12:53:33;15.63;;;9.50;;
53299;SDS011;39187;48.476;8.310;2023-08-24T12:55:59;12.40;;;11.17;;
53299;SDS011;39187;48.476;8.310;2023-08-24T12:58:24;18.67;;;7.70;;
53299;SDS011;39187;48.476;8.310;2023-08-24T13:00:50;8.67;;;8.00;;
53299;SDS011;39187;48.476;8.310;2023-08-24T13:03:16;9.83;;;8.93;;
53299;SDS011;39187;48.476;8.310;2023-08-24T13:05:41;16.27;;;7.97;;
53299;SDS011;39187;48.476;8.310;2023-08-24T13:08:07;12.27;;;8.77;;
53299;SDS011;39187;48.476;8.310;2023-08-24T13:10:33;8.47;;;7.73;;
53299;SDS011;39187;48.476;8.310;2023-08-24T13:12:58;8.83;;;8.10;;
53299;SDS011;39187;48.476;8.310;2023-08-24T13:15:24;8.03;;;7.37;;
53299;SDS011;39187;48.476;8.310;2023-08-24T13:17:49;9.23;;;8.50;;
53299;SDS011;39187;48.476;8.310;2023-08-24T13:20:15;7.80;;;7.30;;
53299;SDS011;39187;48.476;8.310;2023-08-24T13:22:41;10.40;;;7.50;;
53299;SDS011;39187;48.476;8.310;2023-08-24T13:25:07;11.33;;;7.80;;
53299;SDS011;39187;48.476;8.310;2023-08-24T13:27:33;14.23;;;7.67;;
53299;SDS011;39187;48.476;8.310;2023-08-24T13:30:02;7.27;;;6.67;;
53299;SDS011;39187;48.476;8.310;2023-08-24T13:32:28;7.70;;;6.90;;
53299;SDS011;39187;48.476;8.310;2023-08-24T13:34:53;9.40;;;7.37;;
53299;SDS011;39187;48.476;8.310;2023-08-24T13:37:21;8.77;;;6.90;;
53299;SDS011;39187;48.476;8.310;2023-08-24T13:39:47;9.73;;;6.67;;
53299;SDS011;39187;48.476;8.310;2023-08-24T13:42:13;7.00;;;6.40;;
53299;SDS011;39187;48.476;8.310;2023-08-24T13:44:38;8.53;;;6.60;;
53299;SDS011;39187;48.476;8.310;2023-08-24T13:47:04;6.83;;;6.00;;
53299;SDS011;39187;48.476;8.310;2023-08-24T13:49:29;7.53;;;6.63;;
53299;SDS011;39187;48.476;8.310;2023-08-24T13:51:55;8.10;;;5.90;;
53299;SDS011;39187;48.476;8.310;2023-08-24T13:54:20;11.43;;;6.63;;
53299;SDS011;39187;48.476;8.310;2023-08-24T13:56:47;9.20;;;6.67;;
53299;SDS011;39187;48.476;8.310;2023-08-24T13:59:14;6.70;;;6.10;;
53299;SDS011;39187;48.476;8.310;2023-08-24T14:01:40;9.63;;;6.43;;
53299;SDS011;39187;48.476;8.310;2023-08-24T14:04:06;13.40;;;6.87;;
53299;SDS011;39187;48.476;8.310;2023-08-24T14:06:33;8.53;;;5.87;;
53299;SDS011;39187;48.476;8.310;2023-08-24T14:09:05;14.00;;;6.17;;
53299;SDS011;39187;48.476;8.310;2023-08-24T14:11:31;14.13;;;7.00;;
53299;SDS011;39187;48.476;8.310;2023-08-24T14:13:57;8.93;;;6.40;;
53299;SDS011;39187;48.476;8.310;2023-08-24T14:16:23;8.00;;;5.63;;
53299;SDS011;39187;48.476;8.310;2023-08-24T14:18:49;9.53;;;6.93;;
53299;SDS011;39187;48.476;8.310;2023-08-24T14:21:15;14.50;;;6.20;;
53299;SDS011;39187;48.476;8.310;2023-08-24T14:23:40;5.67;;;5.20;;
53299;SDS011;39187;48.476;8.310;2023-08-24T14:26:06;6.40;;;5.80;;
53299;SDS011;39187;48.476;8.310;2023-08-24T14:31:14;11.40;;;6.70;;
53299;SDS011;39187;48.476;8.310;2023-08-24T14:33:39;7.13;;;6.53;;
53299;SDS011;39187;48.476;8.310;2023-08-24T14:36:05;11.17;;;6.50;;
53299;SDS011;39187;48.476;8.310;2023-08-24T14:38:30;8.17;;;6.83;;
53299;SDS011;39187;48.476;8.310;2023-08-24T14:40:56;7.63;;;6.90;;
53299;SDS011;39187;48.476;8.310;2023-08-24T14:43:21;6.30;;;6.00;;
53299;SDS011;39187;48.476;8.310;2023-08-24T14:45:47;13.83;;;7.73;;
53299;SDS011;39187;48.476;8.310;2023-08-24T14:48:13;7.70;;;7.20;;
53299;SDS011;39187;48.476;8.310;2023-08-24T14:50:39;7.00;;;6.50;;
53299;SDS011;39187;48.476;8.310;2023-08-24T14:53:04;8.10;;;7.60;;
53299;SDS011;39187;48.476;8.310;2023-08-24T14:55:30;9.13;;;8.40;;
53299;SDS011;39187;48.476;8.310;2023-08-24T14:57:55;9.17;;;8.30;;
53299;SDS011;39187;48.476;8.310;2023-08-24T15:00:22;8.53;;;8.03;;
53299;SDS011;39187;48.476;8.310;2023-08-24T15:02:48;9.50;;;8.57;;
53299;SDS011;39187;48.476;8.310;2023-08-24T15:05:13;8.60;;;8.00;;